createdAt,value
2022-09-11T00:00:53.612Z,94.40
2022-09-11T00:03:22.259Z,94.40
2022-09-11T00:05:50.144Z,94.40
2022-09-11T00:08:21.194Z,94.40
2022-09-11T00:10:50.294Z,94.30
2022-09-11T00:13:21.448Z,94.40
2022-09-11T00:15:51.380Z,94.40
2022-09-11T00:18:22.234Z,94.40
2022-09-11T00:20:51.501Z,94.30
2022-09-11T00:23:20.397Z,94.30
2022-09-11T00:25:50.017Z,94.30
2022-09-11T00:28:21.157Z,94.30
2022-09-11T00:30:57.810Z,94.40
2022-09-11T00:33:25.837Z,94.40
2022-09-11T00:35:58.367Z,94.40
2022-09-11T00:38:27.023Z,94.40
2022-09-11T00:40:58.071Z,94.40
2022-09-11T00:43:26.758Z,94.40
2022-09-11T00:45:59.702Z,94.40
2022-09-11T00:48:31.713Z,94.40
2022-09-11T00:51:03.783Z,94.40
2022-09-11T00:53:35.172Z,94.40
2022-09-11T00:56:09.773Z,94.40
2022-09-11T00:58:42.668Z,94.40
2022-09-11T01:01:11.025Z,94.40
2022-09-11T01:03:38.869Z,94.50
2022-09-11T01:06:07.651Z,94.50
2022-09-11T01:08:38.245Z,94.50
2022-09-11T01:11:21.378Z,94.50
2022-09-11T01:13:55.965Z,94.50
2022-09-11T01:16:31.034Z,94.50
2022-09-11T01:19:06.140Z,94.60
2022-09-11T01:21:54.375Z,94.50
2022-09-11T01:24:39.143Z,94.50
2022-09-11T01:27:37.248Z,94.50
2022-09-11T01:30:11.661Z,94.60
2022-09-11T01:32:50.014Z,94.60
2022-09-11T01:35:22.868Z,94.60
2022-09-11T01:37:57.370Z,94.60
2022-09-11T01:40:30.265Z,94.50
2022-09-11T01:43:06.111Z,94.50
2022-09-11T01:45:37.694Z,94.60
2022-09-11T01:48:06.867Z,94.60
2022-09-11T01:50:37.630Z,94.60
2022-09-11T01:53:48.129Z,94.70
2022-09-11T01:56:22.545Z,94.90
2022-09-11T01:58:55.974Z,94.60
2022-09-11T02:01:30.940Z,94.60
2022-09-11T02:04:07.121Z,94.60
2022-09-11T02:06:40.705Z,94.60
2022-09-11T02:09:12.002Z,94.60
2022-09-11T02:11:43.115Z,94.60
2022-09-11T02:14:17.804Z,94.60
2022-09-11T02:16:50.789Z,94.60
2022-09-11T02:19:20.707Z,94.60
2022-09-11T02:21:50.745Z,94.60
2022-09-11T02:24:19.649Z,94.70
2022-09-11T02:26:52.566Z,94.70
2022-09-11T02:29:21.011Z,94.70
2022-09-11T02:31:52.045Z,94.70
2022-09-11T02:34:26.703Z,94.70
2022-09-11T02:37:08.694Z,94.70
2022-09-11T02:39:52.034Z,94.70
2022-09-11T02:42:30.985Z,94.80
2022-09-11T02:45:06.647Z,94.80
2022-09-11T02:47:45.957Z,94.80
2022-09-11T02:50:23.105Z,94.80
2022-09-11T02:52:59.020Z,94.80
2022-09-11T02:55:35.796Z,94.80
2022-09-11T02:58:08.821Z,95.20
2022-09-11T03:03:15.909Z,94.80
2022-09-11T03:05:43.927Z,94.80
2022-09-11T03:08:12.836Z,94.80
2022-09-11T03:10:40.608Z,94.80
2022-09-11T03:13:08.332Z,94.90
2022-09-11T03:15:36.067Z,94.90
2022-09-11T03:18:05.283Z,94.90
2022-09-11T03:20:34.700Z,94.90
2022-09-11T03:23:02.446Z,94.90
2022-09-11T03:25:30.199Z,94.90
2022-09-11T03:27:58.098Z,95.00
2022-09-11T03:30:25.917Z,95.00
2022-09-11T03:32:54.134Z,95.00
2022-09-11T03:35:21.927Z,95.00
2022-09-11T03:37:51.021Z,95.00
2022-09-11T03:40:20.135Z,95.10
2022-09-11T03:42:47.917Z,95.10
2022-09-11T03:45:15.936Z,95.00
2022-09-11T03:47:43.703Z,95.00
2022-09-11T03:50:12.723Z,95.00
2022-09-11T03:52:40.573Z,95.00
2022-09-11T03:55:10.521Z,95.10
2022-09-11T03:57:38.988Z,95.40
2022-09-11T04:00:08.184Z,95.10
2022-09-11T04:02:35.938Z,95.10
2022-09-11T04:05:04.374Z,95.10
2022-09-11T04:07:32.148Z,95.10
2022-09-11T04:09:59.859Z,95.20
2022-09-11T04:12:29.028Z,95.10
2022-09-11T04:14:57.012Z,95.10
2022-09-11T04:17:24.975Z,95.10
2022-09-11T04:19:52.714Z,95.20
2022-09-11T04:22:20.481Z,95.20
2022-09-11T04:24:48.241Z,95.20
2022-09-11T04:27:16.036Z,95.20
2022-09-11T04:29:46.090Z,95.20
2022-09-11T04:32:14.120Z,95.20
2022-09-11T04:34:42.057Z,95.20
2022-09-11T04:37:10.158Z,95.20
2022-09-11T04:39:37.958Z,95.20
2022-09-11T04:42:06.143Z,95.30
2022-09-11T04:44:34.086Z,95.30
2022-09-11T04:47:03.278Z,95.20
2022-09-11T04:49:31.151Z,95.30
2022-09-11T04:52:02.648Z,95.30
2022-09-11T04:54:30.443Z,95.30
2022-09-11T04:56:58.195Z,95.30
2022-09-11T04:59:26.085Z,95.30
2022-09-11T05:01:54.436Z,95.30
2022-09-11T05:04:26.155Z,95.40
2022-09-11T05:06:54.382Z,95.30
2022-09-11T05:09:22.363Z,95.40
2022-09-11T05:11:50.376Z,95.40
2022-09-11T05:14:18.291Z,95.30
2022-09-11T05:16:46.193Z,95.40
2022-09-11T05:19:14.188Z,95.40
2022-09-11T05:21:43.315Z,95.40
2022-09-11T05:24:11.513Z,95.40
2022-09-11T05:26:39.282Z,95.40
2022-09-11T05:29:09.311Z,95.40
2022-09-11T05:31:37.504Z,95.40
2022-09-11T05:34:05.941Z,95.40
2022-09-11T05:36:35.288Z,95.40
2022-09-11T05:39:05.377Z,95.40
2022-09-11T05:41:33.226Z,95.40
2022-09-11T05:44:01.021Z,95.40
2022-09-11T05:46:28.791Z,95.40
2022-09-11T05:48:56.561Z,95.40
2022-09-11T05:51:24.733Z,95.50
2022-09-11T05:53:53.878Z,95.40
2022-09-11T05:56:24.373Z,95.40
2022-09-11T05:58:52.722Z,95.50
2022-09-11T06:01:22.916Z,95.50
2022-09-11T06:03:51.421Z,95.50
2022-09-11T06:06:21.157Z,95.50
2022-09-11T06:08:49.981Z,95.50
2022-09-11T06:11:19.612Z,95.50
2022-09-11T06:13:49.756Z,95.60
2022-09-11T06:16:19.199Z,95.60
2022-09-11T06:18:49.180Z,95.60
2022-09-11T06:21:20.052Z,95.60
2022-09-11T06:23:48.649Z,95.60
2022-09-11T06:26:17.866Z,95.60
2022-09-11T06:28:47.511Z,95.60
2022-09-11T06:31:19.279Z,95.60
2022-09-11T06:33:48.133Z,95.60
2022-09-11T06:36:18.453Z,95.60
2022-09-11T06:38:46.539Z,95.60
2022-09-11T06:41:16.492Z,95.60
2022-09-11T06:43:45.022Z,95.60
2022-09-11T06:46:14.701Z,95.60
2022-09-11T06:48:45.721Z,95.60
2022-09-11T06:51:15.211Z,95.60
2022-09-11T06:53:43.482Z,95.50
2022-09-11T06:56:13.195Z,95.40
2022-09-11T06:58:41.159Z,95.50
2022-09-11T07:01:11.751Z,95.40
2022-09-11T07:03:43.962Z,95.40
2022-09-11T07:06:13.499Z,95.40
2022-09-11T07:08:41.623Z,95.30
2022-09-11T07:11:11.375Z,95.30
2022-09-11T07:13:39.732Z,95.40
2022-09-11T07:16:09.673Z,95.30
2022-09-11T07:18:39.006Z,95.30
2022-09-11T07:21:07.443Z,95.30
2022-09-11T07:23:36.659Z,95.30
2022-09-11T07:26:06.017Z,95.40
2022-09-11T07:28:34.317Z,95.40
2022-09-11T07:31:06.587Z,95.40
2022-09-11T07:33:34.535Z,95.40
2022-09-11T07:36:06.714Z,95.50
2022-09-11T07:38:35.792Z,95.40
2022-09-11T07:41:03.659Z,95.40
2022-09-11T07:43:31.878Z,95.30
2022-09-11T07:45:59.627Z,95.20
2022-09-11T07:48:27.389Z,95.20
2022-09-11T07:50:59.072Z,95.30
2022-09-11T07:53:28.311Z,95.30
2022-09-11T07:55:57.389Z,95.30
2022-09-11T07:58:25.149Z,95.30
2022-09-11T08:00:58.855Z,95.30
2022-09-11T08:03:26.656Z,95.30
2022-09-11T08:05:58.475Z,95.20
2022-09-11T08:08:28.934Z,95.20
2022-09-11T08:10:58.516Z,95.20
2022-09-11T08:13:26.246Z,95.20
2022-09-11T08:15:54.051Z,95.30
2022-09-11T08:18:21.784Z,95.30
2022-09-11T08:20:49.787Z,95.20
2022-09-11T08:23:17.575Z,95.20
2022-09-11T08:25:45.609Z,95.20
2022-09-11T08:28:15.034Z,95.30
2022-09-11T08:30:42.782Z,95.20
2022-09-11T08:33:12.881Z,95.20
2022-09-11T08:35:40.617Z,95.30
2022-09-11T08:38:08.386Z,95.30
2022-09-11T08:40:39.066Z,95.20
2022-09-11T08:43:07.807Z,95.20
2022-09-11T08:45:37.277Z,95.30
2022-09-11T08:48:09.169Z,95.30
2022-09-11T08:50:40.843Z,95.30
2022-09-11T08:53:15.235Z,95.30
2022-09-11T08:55:47.563Z,95.30
2022-09-11T08:58:23.965Z,95.40
2022-09-11T09:01:04.012Z,95.40
2022-09-11T09:03:50.419Z,95.40
2022-09-11T09:06:42.048Z,95.50
2022-09-11T09:09:17.596Z,95.40
2022-09-11T09:11:55.751Z,95.30
2022-09-11T09:14:45.763Z,95.30
2022-09-11T09:17:19.270Z,95.30
2022-09-11T09:19:52.514Z,95.20
2022-09-11T09:22:25.806Z,95.10
2022-09-11T09:25:00.170Z,95.10
2022-09-11T09:27:34.525Z,95.10
2022-09-11T09:30:05.702Z,95.10
2022-09-11T09:32:43.079Z,95.00
2022-09-11T09:35:17.728Z,95.00
2022-09-11T09:37:45.689Z,94.90
2022-09-11T09:40:19.225Z,94.90
2022-09-11T09:43:20.056Z,94.90
2022-09-11T09:45:57.586Z,94.90
2022-09-11T09:48:27.404Z,94.90
2022-09-11T09:50:56.239Z,94.80
2022-09-11T09:53:30.460Z,94.80
2022-09-11T09:56:00.589Z,94.80
2022-09-11T09:58:33.226Z,94.90
2022-09-11T10:01:01.139Z,95.00
2022-09-11T10:03:31.071Z,95.00
2022-09-11T10:06:00.142Z,95.00
2022-09-11T10:08:33.502Z,94.90
2022-09-11T10:11:03.658Z,94.80
2022-09-11T10:13:33.959Z,94.80
2022-09-11T10:16:03.984Z,94.70
2022-09-11T10:18:37.444Z,94.60
2022-09-11T10:21:33.868Z,94.80
2022-09-11T10:24:03.883Z,94.80
2022-09-11T10:26:39.199Z,94.70
2022-09-11T10:29:10.158Z,94.60
2022-09-11T10:31:41.768Z,94.50
2022-09-11T10:34:19.939Z,94.40
2022-09-11T10:36:54.942Z,94.40
2022-09-11T10:39:24.188Z,94.40
2022-09-11T10:41:56.531Z,94.30
2022-09-11T10:44:25.496Z,94.30
2022-09-11T10:47:06.392Z,94.30
2022-09-11T10:49:36.079Z,94.30
2022-09-11T10:52:16.988Z,94.20
2022-09-11T10:55:00.036Z,94.20
2022-09-11T10:57:33.452Z,94.20
2022-09-11T11:00:10.095Z,94.30
2022-09-11T11:02:40.860Z,94.20
2022-09-11T11:05:19.734Z,94.10
2022-09-11T11:08:13.278Z,93.90
2022-09-11T11:10:59.007Z,94.00
2022-09-11T11:13:46.975Z,94.00
2022-09-11T11:16:22.825Z,94.00
2022-09-11T11:19:02.612Z,94.00
2022-09-11T11:21:41.804Z,93.90
2022-09-11T11:24:25.718Z,93.80
2022-09-11T11:27:08.715Z,93.80
2022-09-11T11:30:08.480Z,93.60
2022-09-11T11:33:06.804Z,93.60
2022-09-11T11:35:44.677Z,93.40
2022-09-11T11:38:20.041Z,93.30
2022-09-11T11:40:50.764Z,93.30
2022-09-11T11:43:22.852Z,93.30
2022-09-11T11:45:55.651Z,93.20
2022-09-11T11:48:30.195Z,93.10
2022-09-11T11:51:03.769Z,92.90
2022-09-11T11:53:39.884Z,93.00
2022-09-11T11:56:15.621Z,93.00
2022-09-11T11:58:48.237Z,92.70
2022-09-11T12:01:22.112Z,92.80
2022-09-11T12:03:56.431Z,92.70
2022-09-11T12:06:24.263Z,92.70
2022-09-11T12:08:53.504Z,92.60
2022-09-11T12:11:29.868Z,92.50
2022-09-11T12:13:58.341Z,92.50
2022-09-11T12:16:31.464Z,92.50
2022-09-11T12:19:06.016Z,92.20
2022-09-11T12:21:42.409Z,92.30
2022-09-11T12:24:19.815Z,92.40
2022-09-11T12:26:47.940Z,92.30
2022-09-11T12:29:53.991Z,92.30
2022-09-11T12:32:41.792Z,92.30
2022-09-11T12:35:38.082Z,92.30
2022-09-11T12:38:18.928Z,92.10
2022-09-11T12:40:54.065Z,91.90
2022-09-11T12:43:30.645Z,91.90
2022-09-11T12:45:58.554Z,91.90
2022-09-11T12:48:38.477Z,92.00
2022-09-11T12:51:16.454Z,91.90
2022-09-11T12:53:47.249Z,91.70
2022-09-11T12:56:21.687Z,91.90
2022-09-11T12:58:55.204Z,91.50
2022-09-11T13:01:27.169Z,91.60
2022-09-11T13:04:01.770Z,91.80
2022-09-11T13:06:40.577Z,92.10
2022-09-11T13:09:18.152Z,91.80
2022-09-11T13:11:49.603Z,91.80
2022-09-11T13:14:51.738Z,91.70
2022-09-11T13:17:30.053Z,91.50
2022-09-11T13:20:21.697Z,91.60
2022-09-11T13:22:53.709Z,91.60
2022-09-11T13:25:26.456Z,91.70
2022-09-11T13:27:57.661Z,91.50
2022-09-11T13:30:26.869Z,91.50
2022-09-11T13:33:06.380Z,91.20
2022-09-11T13:35:35.456Z,91.20
2022-09-11T13:38:06.379Z,90.90
2022-09-11T13:40:47.191Z,90.80
2022-09-11T13:43:20.726Z,91.10
2022-09-11T13:45:48.670Z,91.10
2022-09-11T13:48:22.809Z,91.10
2022-09-11T13:50:51.826Z,90.80
2022-09-11T13:53:21.053Z,90.90
2022-09-11T13:55:49.983Z,90.70
2022-09-11T13:58:25.314Z,90.80
2022-09-11T14:00:55.367Z,90.60
2022-09-11T14:03:27.876Z,90.30
2022-09-11T14:05:57.753Z,90.60
2022-09-11T14:08:34.164Z,90.60
2022-09-11T14:11:07.176Z,90.30
2022-09-11T14:13:47.613Z,90.60
2022-09-11T14:16:23.703Z,90.60
2022-09-11T14:18:53.485Z,90.70
2022-09-11T14:21:23.987Z,90.60
2022-09-11T14:23:53.394Z,90.70
2022-09-11T14:26:23.076Z,90.60
2022-09-11T14:29:02.521Z,90.50
2022-09-11T14:31:40.707Z,90.50
2022-09-11T14:34:13.592Z,90.20
2022-09-11T14:36:45.013Z,90.40
2022-09-11T14:39:17.017Z,90.20
2022-09-11T14:41:45.875Z,90.50
2022-09-11T14:44:17.591Z,90.40
2022-09-11T14:46:45.404Z,90.00
2022-09-11T14:49:13.167Z,90.20
2022-09-11T14:51:41.720Z,90.20
2022-09-11T14:54:15.262Z,90.10
2022-09-11T14:56:44.711Z,90.00
2022-09-11T15:01:42.111Z,89.60
2022-09-11T15:04:14.081Z,89.40
2022-09-11T15:06:41.860Z,89.30
2022-09-11T15:09:09.632Z,89.60
2022-09-11T15:11:39.498Z,89.50
2022-09-11T15:14:32.222Z,89.50
2022-09-11T15:16:58.126Z,89.50
2022-09-11T15:19:26.084Z,89.50
2022-09-11T15:21:53.941Z,89.90
2022-09-11T15:24:21.708Z,89.90
2022-09-11T15:26:49.464Z,90.00
2022-09-11T15:29:17.462Z,89.10
2022-09-11T15:31:45.287Z,89.40
2022-09-11T15:34:14.730Z,89.50
2022-09-11T15:36:43.469Z,89.00
2022-09-11T15:39:14.377Z,89.80
2022-09-11T15:41:42.907Z,90.00
2022-09-11T15:44:12.079Z,89.70
2022-09-11T15:46:39.982Z,89.90
2022-09-11T15:49:07.698Z,89.70
2022-09-11T15:51:36.933Z,89.70
2022-09-11T15:54:04.781Z,89.80
2022-09-11T15:56:35.469Z,89.80
2022-09-11T15:59:03.472Z,89.70
2022-09-11T16:01:33.394Z,89.70
2022-09-11T16:04:03.320Z,89.90
2022-09-11T16:06:33.580Z,90.00
2022-09-11T16:09:05.067Z,90.00
2022-09-11T16:11:34.161Z,89.80
2022-09-11T16:14:02.426Z,89.70
2022-09-11T16:16:30.160Z,89.60
2022-09-11T16:18:58.553Z,89.70
2022-09-11T16:21:27.087Z,89.70
2022-09-11T16:24:00.630Z,90.00
2022-09-11T16:26:31.579Z,90.00
2022-09-11T16:28:59.373Z,89.80
2022-09-11T16:31:27.115Z,90.00
2022-09-11T16:33:56.853Z,90.10
2022-09-11T16:36:25.250Z,90.00
2022-09-11T16:38:54.798Z,89.70
2022-09-11T16:41:23.619Z,89.90
2022-09-11T16:43:54.179Z,90.00
2022-09-11T16:46:24.095Z,90.00
2022-09-11T16:48:55.555Z,90.30
2022-09-11T16:51:25.167Z,89.80
2022-09-11T16:53:53.112Z,90.00
2022-09-11T16:56:22.972Z,90.00
2022-09-11T16:58:52.489Z,90.10
2022-09-11T17:01:21.811Z,90.10
2022-09-11T17:03:52.171Z,90.10
2022-09-11T17:06:21.027Z,90.20
2022-09-11T17:08:50.881Z,90.30
2022-09-11T17:11:21.374Z,90.30
2022-09-11T17:13:50.439Z,90.30
2022-09-11T17:16:21.968Z,90.40
2022-09-11T17:18:51.193Z,90.50
2022-09-11T17:21:18.995Z,90.50
2022-09-11T17:23:46.952Z,90.60
2022-09-11T17:26:16.786Z,90.60
2022-09-11T17:28:47.151Z,90.60
2022-09-11T17:31:15.988Z,90.70
2022-09-11T17:33:46.096Z,90.60
2022-09-11T17:36:17.098Z,90.60
2022-09-11T17:38:46.113Z,90.70
2022-09-11T17:41:14.406Z,90.80
2022-09-11T17:43:42.216Z,90.80
2022-09-11T17:46:12.877Z,90.80
2022-09-11T17:48:41.704Z,90.80
2022-09-11T17:51:12.987Z,90.80
2022-09-11T17:53:42.677Z,90.90
2022-09-11T17:56:13.067Z,90.80
2022-09-11T17:58:42.649Z,90.80
2022-09-11T18:01:14.772Z,90.90
2022-09-11T18:03:44.728Z,90.80
2022-09-11T18:06:23.701Z,90.90
2022-09-11T18:08:51.660Z,90.90
2022-09-11T18:11:19.415Z,91.00
2022-09-11T18:13:47.164Z,90.90
2022-09-11T18:16:15.510Z,91.00
2022-09-11T18:18:43.315Z,91.00
2022-09-11T18:21:12.568Z,91.00
2022-09-11T18:23:43.683Z,91.00
2022-09-11T18:26:21.938Z,91.00
2022-09-11T18:28:50.245Z,91.10
2022-09-11T18:31:19.203Z,91.10
2022-09-11T18:33:54.468Z,91.10
2022-09-11T18:36:23.431Z,91.10
2022-09-11T18:38:53.668Z,91.10
2022-09-11T18:41:22.984Z,91.20
2022-09-11T18:43:54.983Z,91.20
2022-09-11T18:46:23.180Z,91.20
2022-09-11T18:48:50.980Z,91.20
2022-09-11T18:51:20.485Z,91.30
2022-09-11T18:53:51.820Z,91.30
2022-09-11T18:56:22.279Z,91.40
2022-09-11T18:58:52.063Z,91.40
2022-09-11T19:01:22.328Z,91.40
2022-09-11T19:03:51.653Z,91.50
2022-09-11T19:06:21.428Z,91.60
2022-09-11T19:08:49.859Z,91.50
2022-09-11T19:11:20.877Z,91.50
2022-09-11T19:13:49.688Z,91.50
2022-09-11T19:16:19.107Z,91.50
2022-09-11T19:18:47.308Z,91.60
2022-09-11T19:21:16.751Z,91.50
2022-09-11T19:23:46.672Z,91.50
2022-09-11T19:26:17.905Z,91.60
2022-09-11T19:28:47.855Z,91.60
2022-09-11T19:31:16.928Z,91.60
2022-09-11T19:33:45.344Z,91.60
2022-09-11T19:36:17.467Z,91.70
2022-09-11T19:38:47.088Z,91.80
2022-09-11T19:41:16.653Z,91.80
2022-09-11T19:43:47.568Z,91.80
2022-09-11T19:46:17.161Z,91.80
2022-09-11T19:48:45.675Z,91.80
2022-09-11T19:51:14.999Z,91.80
2022-09-11T19:53:43.325Z,91.80
2022-09-11T19:56:12.443Z,91.90
2022-09-11T19:58:40.611Z,91.90
2022-09-11T20:01:11.401Z,91.90
2022-09-11T20:03:40.014Z,91.80
2022-09-11T20:06:09.206Z,91.90
2022-09-11T20:08:37.959Z,91.90
2022-09-11T20:11:08.202Z,92.00
2022-09-11T20:13:36.819Z,92.00
2022-09-11T20:16:05.111Z,91.90
2022-09-11T20:18:34.448Z,91.90
2022-09-11T20:21:03.072Z,91.90
2022-09-11T20:23:31.016Z,91.90
2022-09-11T20:26:08.707Z,91.90
2022-09-11T20:28:36.583Z,92.00
2022-09-11T20:31:12.805Z,92.00
2022-09-11T20:33:42.213Z,92.00
2022-09-11T20:36:10.010Z,92.00
2022-09-11T20:38:37.849Z,92.00
2022-09-11T20:41:07.710Z,92.00
2022-09-11T20:43:35.647Z,92.00
2022-09-11T20:46:03.837Z,92.00
2022-09-11T20:48:32.387Z,92.10
2022-09-11T20:51:04.572Z,92.10
2022-09-11T20:53:32.461Z,92.00
2022-09-11T20:56:04.553Z,92.10
2022-09-11T20:58:32.575Z,92.10
2022-09-11T21:01:00.925Z,92.10
2022-09-11T21:03:29.723Z,92.10
2022-09-11T21:05:58.062Z,92.20
2022-09-11T21:08:27.268Z,92.20
2022-09-11T21:10:54.984Z,92.10
2022-09-11T21:13:22.732Z,92.10
2022-09-11T21:15:50.524Z,92.10
2022-09-11T21:18:18.325Z,92.10
2022-09-11T21:20:54.559Z,92.10
2022-09-11T21:23:22.434Z,92.10
2022-09-11T21:25:52.794Z,92.10
2022-09-11T21:28:20.835Z,92.10
2022-09-11T21:30:48.601Z,92.10
2022-09-11T21:33:16.486Z,92.20
2022-09-11T21:35:44.269Z,92.20
2022-09-11T21:38:12.005Z,92.20
2022-09-11T21:40:39.776Z,92.10
2022-09-11T21:43:08.868Z,92.20
2022-09-11T21:45:36.662Z,92.20
2022-09-11T21:48:05.510Z,92.20
2022-09-11T21:50:33.285Z,92.20
2022-09-11T21:53:01.274Z,92.20
2022-09-11T21:55:29.244Z,92.30
2022-09-11T21:57:57.045Z,92.30
2022-09-11T22:00:26.274Z,92.30
2022-09-11T22:02:54.033Z,92.20
2022-09-11T22:05:21.953Z,92.20
2022-09-11T22:07:49.807Z,92.20
2022-09-11T22:10:17.787Z,92.20
2022-09-11T22:12:45.752Z,92.50
2022-09-11T22:15:13.505Z,92.20
2022-09-11T22:17:42.583Z,92.20
2022-09-11T22:20:10.727Z,92.20
2022-09-11T22:22:38.567Z,92.20
2022-09-11T22:25:07.297Z,92.20
2022-09-11T22:27:35.338Z,92.20
2022-09-11T22:30:04.402Z,92.20
2022-09-11T22:32:32.151Z,92.30
2022-09-11T22:35:01.243Z,92.30
2022-09-11T22:37:28.973Z,92.30
2022-09-11T22:39:56.771Z,92.30
2022-09-11T22:42:24.605Z,92.30
2022-09-11T22:44:52.321Z,92.30
2022-09-11T22:47:20.276Z,92.30
2022-09-11T22:49:48.029Z,92.30
2022-09-11T22:52:17.138Z,92.30
2022-09-11T22:54:44.924Z,92.30
2022-09-11T22:57:12.699Z,92.40
2022-09-11T22:59:40.406Z,92.40
2022-09-11T23:02:08.361Z,92.40
2022-09-11T23:04:36.213Z,92.40
2022-09-11T23:07:15.164Z,92.40
2022-09-11T23:09:44.833Z,92.40
2022-09-11T23:12:12.950Z,92.40
2022-09-11T23:14:40.673Z,92.40
2022-09-11T23:17:08.770Z,92.40
2022-09-11T23:19:36.602Z,92.30
2022-09-11T23:22:04.400Z,92.30
2022-09-11T23:24:32.332Z,92.30
2022-09-11T23:27:01.534Z,92.30
2022-09-11T23:29:29.382Z,92.40
2022-09-11T23:31:57.699Z,92.40
2022-09-11T23:34:25.489Z,92.30
2022-09-11T23:36:53.195Z,92.30
2022-09-11T23:39:21.004Z,92.40
2022-09-11T23:41:49.131Z,92.40
2022-09-11T23:44:18.335Z,92.40
2022-09-11T23:46:46.126Z,92.40
2022-09-11T23:49:15.329Z,92.40
2022-09-11T23:51:43.105Z,92.40
2022-09-11T23:54:10.856Z,92.40
2022-09-11T23:56:38.618Z,92.40
2022-09-11T23:59:06.519Z,92.40
